Time;durP1;ratioP1;P1;durP2;ratioP2;P2;SDS_P1;SDS_P2;PMS_P1;PMS_P2;Temp;Humidity;BMP_temperature;BMP_pressure;BME280_temperature;BME280_humidity;BME280_pressure;Samples;Min_cycle;Max_cycle;Signal;HPM_P1;HPM_P2
2022/04/21 00:01:40;;;;;;;10.32;6.97;;;;;;;12.70;47.68;101247.50;5035682;28;20021;-65
2022/04/21 00:04:06;;;;;;;9.88;6.68;;;;;;;12.64;47.62;101243.41;5033966;28;20035;-65
2022/04/21 00:06:32;;;;;;;8.45;7.03;;;;;;;12.62;48.06;101240.03;5040316;28;20028;-65
2022/04/21 00:08:57;;;;;;;11.63;7.13;;;;;;;12.63;47.49;101246.22;5036759;28;20029;-65
2022/04/21 00:11:23;;;;;;;8.38;6.50;;;;;;;12.58;47.78;101232.28;5049535;28;20046;-65
2022/04/21 00:13:50;;;;;;;8.73;6.68;;;;;;;12.58;47.72;101243.81;5052594;28;20036;-65
2022/04/21 00:16:16;;;;;;;7.90;7.10;;;;;;;12.62;47.85;101240.03;5035564;28;20080;-65
2022/04/21 00:18:46;;;;;;;8.90;6.93;;;;;;;12.42;47.92;101237.78;5049564;28;20041;-65
2022/04/21 00:21:11;;;;;;;9.82;7.35;;;;;;;12.44;47.81;101250.06;5049248;28;20052;-65
2022/04/21 00:23:37;;;;;;;7.20;6.45;;;;;;;12.47;47.88;101241.00;5043426;28;20076;-65
2022/04/21 00:26:04;;;;;;;10.57;7.05;;;;;;;12.47;48.12;101238.31;5038765;28;20144;-65
2022/04/21 00:28:30;;;;;;;10.68;6.97;;;;;;;12.44;48.40;101244.75;5033633;28;20116;-65
2022/04/21 00:30:55;;;;;;;7.32;6.28;;;;;;;12.30;48.49;101242.09;5040093;28;20388;-65
2022/04/21 00:33:21;;;;;;;8.73;6.35;;;;;;;12.36;48.11;101236.38;5053902;28;20029;-65
2022/04/21 00:35:49;;;;;;;7.63;6.72;;;;;;;12.32;48.37;101234.84;5035966;28;20037;-65
2022/04/21 00:38:15;;;;;;;11.20;6.55;;;;;;;12.42;48.11;101238.63;5033009;28;20045;-65
2022/04/21 00:40:40;;;;;;;8.98;6.15;;;;;;;12.30;48.73;101239.44;5034474;28;20036;-65
2022/04/21 00:43:11;;;;;;;9.25;6.18;;;;;;;12.21;48.79;101237.34;5037114;28;20116;-65
2022/04/21 00:45:36;;;;;;;7.40;6.43;;;;;;;12.31;48.19;101237.63;5037675;28;20020;-65
2022/04/21 00:48:05;;;;;;;6.70;5.70;;;;;;;12.27;48.65;101228.97;5029633;28;20506;-65
2022/04/21 00:50:36;;;;;;;8.23;5.70;;;;;;;12.26;48.72;101232.56;5047154;28;20025;-65
2022/04/21 00:53:04;;;;;;;9.40;6.57;;;;;;;12.23;48.77;101224.75;5036842;28;20021;-64
2022/04/21 00:55:31;;;;;;;11.37;7.00;;;;;;;12.24;49.11;101222.00;5038346;28;20021;-65
2022/04/21 00:57:57;;;;;;;9.38;6.43;;;;;;;12.14;48.84;101228.88;5050868;28;20025;-65
2022/04/21 01:00:23;;;;;;;7.60;6.13;;;;;;;12.11;48.84;101228.22;5057657;28;20087;-65
2022/04/21 01:02:53;;;;;;;12.02;7.18;;;;;;;12.01;49.58;101219.94;5046665;28;20033;-65
2022/04/21 01:05:31;;;;;;;8.18;6.63;;;;;;;11.97;49.65;101221.97;5043874;28;20033;-65
2022/04/21 01:08:01;;;;;;;10.65;6.53;;;;;;;11.98;49.79;101221.00;5035095;28;20029;-65
2022/04/21 01:10:28;;;;;;;10.82;6.10;;;;;;;11.77;50.40;101233.81;5050692;28;20049;-65
2022/04/21 01:12:54;;;;;;;8.32;6.60;;;;;;;11.78;50.55;101226.69;5053325;28;20476;-65
2022/04/21 01:15:20;;;;;;;8.32;6.85;;;;;;;11.74;50.52;101233.16;5034517;28;20025;-65
2022/04/21 01:17:46;;;;;;;9.65;6.55;;;;;;;11.78;50.15;101230.19;5034318;28;20030;-65
2022/04/21 01:20:16;;;;;;;10.18;6.63;;;;;;;11.79;50.09;101231.94;5040743;28;20108;-65
2022/04/21 01:22:42;;;;;;;7.07;6.38;;;;;;;11.78;50.83;101232.88;5037838;28;20035;-65
2022/04/21 01:25:08;;;;;;;10.45;7.15;;;;;;;11.64;51.19;101230.19;5051216;28;20108;-65
2022/04/21 01:27:37;;;;;;;7.10;6.45;;;;;;;11.52;51.41;101236.28;5031706;28;20388;-65
2022/04/21 01:30:04;;;;;;;8.73;6.82;;;;;;;11.54;50.92;101229.06;5032765;28;20026;-65
2022/04/21 01:32:31;;;;;;;12.40;7.07;;;;;;;11.48;51.57;101221.44;5052387;28;20029;-65
2022/04/21 01:34:59;;;;;;;9.50;7.03;;;;;;;11.29;51.78;101222.53;5017373;28;20041;-64
2022/04/21 01:42:53;;;;;;;7.82;6.90;;;;;;;11.37;51.36;101219.41;5032572;28;20098;-65
2022/04/21 01:45:19;;;;;;;7.85;6.85;;;;;;;11.27;51.73;101212.94;5031530;28;20045;-65
2022/04/21 01:47:45;;;;;;;8.90;7.05;;;;;;;11.21;52.04;101223.97;5038696;28;20522;-65
2022/04/21 01:50:11;;;;;;;8.32;7.50;;;;;;;11.21;52.21;101218.63;5031123;28;20044;-65
2022/04/21 01:52:39;;;;;;;9.85;7.93;;;;;;;11.10;52.28;101220.13;5038329;28;20484;-65
2022/04/21 01:55:06;;;;;;;8.25;6.82;;;;;;;11.08;52.39;101222.00;5049489;28;20037;-64
2022/04/21 01:57:32;;;;;;;8.00;6.93;;;;;;;11.08;52.36;101206.03;5038448;28;20384;-64
2022/04/21 01:59:57;;;;;;;8.45;7.15;;;;;;;11.04;52.40;101206.31;5043882;28;20032;-65
2022/04/21 02:02:23;;;;;;;11.98;8.05;;;;;;;11.18;51.82;101213.47;5034690;28;20120;-65
2022/04/21 02:04:49;;;;;;;9.13;7.47;;;;;;;11.08;52.07;101215.81;5039128;28;20463;-65
2022/04/21 02:07:15;;;;;;;8.85;7.28;;;;;;;11.20;51.92;101209.75;5032163;28;20408;-65
2022/04/21 02:09:40;;;;;;;9.48;7.75;;;;;;;11.02;52.51;101210.88;5013825;28;20044;-65
2022/04/21 02:12:06;;;;;;;9.60;7.65;;;;;;;11.14;52.18;101211.00;5056632;28;20501;-64
2022/04/21 02:14:33;;;;;;;9.85;7.07;;;;;;;10.99;52.29;101217.22;5031040;28;20041;-64
2022/04/21 02:16:59;;;;;;;10.60;7.28;;;;;;;11.07;52.34;101219.44;5032319;28;20076;-64
2022/04/21 02:19:25;;;;;;;8.85;7.95;;;;;;;10.87;52.76;101220.63;5039145;28;20472;-65
2022/04/21 02:21:50;;;;;;;9.93;7.88;;;;;;;10.93;53.12;101220.25;5046787;28;20032;-65
2022/04/21 02:24:17;;;;;;;8.85;7.95;;;;;;;10.87;52.75;101220.63;5030670;28;20033;-65
2022/04/21 02:26:43;;;;;;;15.43;7.50;;;;;;;10.80;53.00;101214.78;5033116;28;20028;-65
2022/04/21 02:29:08;;;;;;;9.60;7.90;;;;;;;10.80;52.96;101216.59;5030082;28;20028;-64
2022/04/21 02:31:34;;;;;;;10.38;8.27;;;;;;;10.75;53.22;101213.34;5034585;28;20036;-64
2022/04/21 02:34:00;;;;;;;10.35;7.82;;;;;;;10.88;52.81;101217.00;5030279;28;20492;-65
2022/04/21 02:36:26;;;;;;;14.38;7.72;;;;;;;10.78;53.10;101215.81;5061085;28;20119;-64
2022/04/21 02:38:55;;;;;;;11.20;7.57;;;;;;;10.75;53.52;101218.66;5034843;28;20101;-65
2022/04/21 02:41:23;;;;;;;9.05;8.15;;;;;;;10.63;53.57;101215.75;5028402;28;20017;-64
2022/04/21 02:43:51;;;;;;;10.35;7.43;;;;;;;10.64;53.61;101220.13;5031801;28;20117;-64
2022/04/21 02:46:17;;;;;;;8.82;7.85;;;;;;;10.62;53.58;101207.88;5053104;28;20029;-64
2022/04/21 02:48:43;;;;;;;9.70;7.72;;;;;;;10.62;53.83;101208.75;5052575;28;20029;-64
2022/04/21 02:51:11;;;;;;;8.48;7.20;;;;;;;10.61;53.61;101209.66;5032208;28;20099;-64
2022/04/21 02:59:06;;;;;;;12.30;8.18;;;;;;;10.36;54.51;101204.91;5037454;28;20098;-65
2022/04/21 03:01:31;;;;;;;12.73;7.80;;;;;;;10.35;54.63;101215.59;5038205;28;20074;-65
2022/04/21 03:03:57;;;;;;;9.68;7.90;;;;;;;10.38;54.07;101208.34;5019448;28;20029;-64
2022/04/21 03:06:23;;;;;;;10.32;7.88;;;;;;;10.39;54.64;101204.72;5047721;28;20037;-64
2022/04/21 03:08:49;;;;;;;9.80;7.88;;;;;;;10.50;53.82;101208.56;5029559;28;20026;-65
2022/04/21 03:11:14;;;;;;;11.98;8.15;;;;;;;10.33;54.27;101201.56;5038429;28;20041;-65
2022/04/21 03:13:40;;;;;;;9.65;7.85;;;;;;;10.32;54.43;101205.16;5049083;28;20065;-64
2022/04/21 03:16:05;;;;;;;11.95;7.82;;;;;;;10.27;54.47;101208.09;5027818;28;20451;-65
2022/04/21 03:18:31;;;;;;;11.18;8.32;;;;;;;10.34;54.37;101203.28;5030602;28;20029;-65
2022/04/21 03:26:25;;;;;;;11.10;8.88;;;;;;;10.15;54.82;101206.94;5049678;28;20117;-65
2022/04/21 03:28:50;;;;;;;11.45;7.63;;;;;;;10.09;54.87;101204.63;5046887;28;20687;-64
2022/04/21 03:31:18;;;;;;;9.25;7.70;;;;;;;10.00;55.08;101208.63;5034961;28;20025;-65
2022/04/21 03:33:43;;;;;;;10.10;8.20;;;;;;;9.97;55.19;101198.19;5037154;28;20040;-65
2022/04/21 03:36:11;;;;;;;8.88;7.97;;;;;;;10.01;55.22;101204.19;5033655;28;20022;-64
2022/04/21 03:38:39;;;;;;;8.93;7.82;;;;;;;9.95;55.32;101210.69;5059685;28;20098;-65
2022/04/21 03:41:05;;;;;;;13.02;7.97;;;;;;;9.88;55.44;101196.03;5048457;28;20025;-64
2022/04/21 03:43:33;;;;;;;11.52;7.80;;;;;;;9.87;55.77;101214.69;5044732;28;20111;-65
2022/04/21 03:46:00;;;;;;;13.95;8.38;;;;;;;9.80;56.19;101202.69;5049857;28;20036;-65
2022/04/21 03:48:29;;;;;;;10.93;8.18;;;;;;;9.80;55.87;101214.19;5042224;28;20033;-65
2022/04/21 03:50:56;;;;;;;16.38;7.88;;;;;;;9.83;55.87;101214.00;5031701;28;20057;-64
2022/04/21 03:53:21;;;;;;;10.82;7.82;;;;;;;9.83;55.59;101218.47;5033766;28;20036;-65
2022/04/21 03:55:47;;;;;;;8.65;7.65;;;;;;;9.71;56.01;101214.69;5045878;28;20264;-65
2022/04/21 03:58:13;;;;;;;12.05;8.25;;;;;;;9.76;55.97;101218.81;5041103;28;20492;-65
2022/04/21 04:00:38;;;;;;;14.75;8.38;;;;;;;9.61;56.50;101222.25;5042863;28;20455;-65
2022/04/21 04:03:07;;;;;;;10.57;8.68;;;;;;;9.54;56.64;101224.38;5050380;28;20075;-65
2022/04/21 04:05:34;;;;;;;12.10;8.33;;;;;;;9.67;56.09;101223.72;5044455;28;20033;-64
2022/04/21 04:10:52;;;;;;;13.73;8.35;;;;;;;9.68;55.84;101223.66;5030436;28;20405;-65
2022/04/21 04:13:35;;;;;;;11.75;8.50;;;;;;;9.66;55.54;101220.22;5047799;28;20069;-64
2022/04/21 04:16:01;;;;;;;10.05;8.02;;;;;;;9.64;55.70;101222.09;5015319;28;20055;-64
2022/04/21 04:18:28;;;;;;;11.90;8.68;;;;;;;9.55;55.55;101210.16;5047307;28;20045;-65
2022/04/21 04:20:54;;;;;;;13.02;8.07;;;;;;;9.64;55.73;101213.28;5047859;28;20020;-65
2022/04/21 04:23:20;;;;;;;10.57;8.88;;;;;;;9.54;55.91;101215.56;5047601;28;20463;-65
2022/04/21 04:25:46;;;;;;;12.30;8.68;;;;;;;9.57;56.25;101206.59;5047310;28;20029;-65
2022/04/21 04:28:12;;;;;;;10.30;8.77;;;;;;;9.60;55.86;101209.06;5029537;28;20543;-65
2022/04/21 04:30:40;;;;;;;13.52;8.77;;;;;;;9.45;55.76;101211.59;5048454;28;20102;-64
2022/04/21 04:33:07;;;;;;;10.40;8.73;;;;;;;9.40;56.45;101218.94;5031236;28;20404;-64
2022/04/21 04:35:32;;;;;;;12.23;8.63;;;;;;;9.43;55.90;101208.16;5029776;28;20491;-65
2022/04/21 04:37:58;;;;;;;11.95;8.65;;;;;;;9.52;56.05;101225.41;5030332;28;20033;-65
2022/04/21 04:40:25;;;;;;;10.48;8.10;;;;;;;9.41;55.98;101223.31;5030940;28;20063;-64
2022/04/21 04:42:53;;;;;;;14.02;8.70;;;;;;;9.31;56.36;101217.63;5046686;28;20060;-64
2022/04/21 04:48:04;;;;;;;10.90;8.35;;;;;;;9.42;56.68;101229.50;5032971;28;20128;-64
2022/04/21 04:50:29;;;;;;;11.50;8.30;;;;;;;9.41;56.72;101230.41;5032590;28;20072;-65
2022/04/21 04:52:59;;;;;;;10.05;8.13;;;;;;;9.40;56.35;101228.69;5056894;28;20064;-64
2022/04/21 04:55:26;;;;;;;12.35;8.80;;;;;;;9.30;56.73;101225.69;5037848;28;20025;-64
2022/04/21 04:57:54;;;;;;;11.20;9.18;;;;;;;9.36;56.85;101228.00;5050009;28;20029;-64
2022/04/21 05:00:21;;;;;;;12.57;8.63;;;;;;;9.39;56.65;101235.81;5057114;28;20227;-64
2022/04/21 05:02:47;;;;;;;10.35;9.13;;;;;;;9.37;56.75;101235.03;5039570;28;20048;-65
2022/04/21 05:05:13;;;;;;;10.35;9.35;;;;;;;9.35;57.11;101236.88;5031572;28;20065;-65
2022/04/21 05:07:39;;;;;;;11.82;8.85;;;;;;;9.27;57.07;101229.34;5048063;28;20052;-64
2022/04/21 05:10:07;;;;;;;11.65;9.07;;;;;;;9.27;57.48;101224.03;5055058;28;20037;-65
2022/04/21 05:12:32;;;;;;;11.90;8.63;;;;;;;9.31;57.24;101224.72;5049817;28;20044;-64
2022/04/21 05:14:58;;;;;;;10.30;9.13;;;;;;;9.39;57.05;101225.19;5015481;28;20033;-65
2022/04/21 05:17:24;;;;;;;14.93;9.18;;;;;;;9.36;56.85;101229.81;5031962;28;20036;-64
2022/04/21 05:19:52;;;;;;;9.68;8.57;;;;;;;9.39;57.00;101222.53;5014066;28;20100;-65
2022/04/21 05:22:18;;;;;;;14.00;8.32;;;;;;;9.47;56.96;101224.78;5035043;28;20037;-64
2022/04/21 05:24:51;;;;;;;12.90;9.40;;;;;;;9.42;57.25;101227.69;5053877;28;20025;-65
2022/04/21 05:27:18;;;;;;;9.68;8.68;;;;;;;9.57;57.31;101218.06;5032220;28;20124;-64
2022/04/21 05:32:35;;;;;;;11.65;9.23;;;;;;;9.67;57.13;101229.88;5033690;28;20111;-64
2022/04/21 05:35:02;;;;;;;10.23;9.00;;;;;;;9.57;56.66;101212.75;5033990;28;20030;-65
2022/04/21 05:37:29;;;;;;;8.98;8.07;;;;;;;9.80;55.63;101215.97;5032812;28;20104;-65
2022/04/21 05:39:55;;;;;;;11.05;8.55;;;;;;;9.83;55.90;101216.66;5035720;28;20025;-64
2022/04/21 05:42:25;;;;;;;13.65;8.85;;;;;;;9.88;55.90;101204.00;5032841;28;20029;-65
2022/04/21 05:44:57;;;;;;;15.70;9.30;;;;;;;10.02;55.41;101213.84;5049874;28;20100;-64
2022/04/21 05:47:25;;;;;;;11.93;8.55;;;;;;;10.09;54.71;101217.03;5050888;28;20033;-65
2022/04/21 05:49:52;;;;;;;10.38;9.30;;;;;;;10.17;54.86;101223.63;5033865;28;20036;-65
2022/04/21 05:52:23;;;;;;;9.43;8.43;;;;;;;10.21;54.11;101219.88;5032225;28;20603;-64
2022/04/21 05:54:49;;;;;;;10.32;8.80;;;;;;;10.35;53.77;101219.16;5031330;28;20465;-65
2022/04/21 05:57:15;;;;;;;10.93;9.02;;;;;;;10.45;53.60;101214.16;5030234;28;20036;-65
2022/04/21 05:59:41;;;;;;;12.15;8.02;;;;;;;10.52;52.99;101209.34;5036065;28;20033;-65
2022/04/21 06:02:07;;;;;;;11.73;7.90;;;;;;;10.51;53.37;101211.16;5032804;28;20496;-65
2022/04/21 06:04:32;;;;;;;11.45;8.40;;;;;;;10.58;53.25;101215.16;5030578;28;20116;-64
2022/04/21 06:06:58;;;;;;;9.05;8.15;;;;;;;10.73;53.17;101215.22;5049093;28;20147;-65
2022/04/21 06:09:26;;;;;;;12.07;8.65;;;;;;;10.90;52.36;101221.28;5050126;28;20034;-64
2022/04/21 06:11:54;;;;;;;11.63;9.20;;;;;;;10.94;53.48;101227.28;5032024;28;20140;-65
2022/04/21 06:14:19;;;;;;;14.93;9.15;;;;;;;10.99;52.33;101216.38;5032474;28;20231;-64
2022/04/21 06:16:47;;;;;;;12.40;9.07;;;;;;;11.04;52.04;101211.66;5035843;28;20116;-65
2022/04/21 06:19:12;;;;;;;15.80;9.25;;;;;;;10.82;52.10;101186.28;5034086;28;20546;-65
2022/04/21 06:21:38;;;;;;;11.40;9.77;;;;;;;11.05;52.18;101219.53;5028850;28;20014;-65
2022/04/21 06:24:04;;;;;;;11.07;9.20;;;;;;;11.25;52.17;101222.81;5032974;28;20052;-64
2022/04/21 06:26:33;;;;;;;11.48;8.75;;;;;;;11.23;51.57;101217.56;5033259;28;20558;-64
2022/04/21 06:29:02;;;;;;;10.70;8.82;;;;;;;11.28;52.04;101210.16;5030993;28;20037;-65
2022/04/21 06:31:27;;;;;;;12.03;9.20;;;;;;;11.42;51.67;101212.00;5050583;28;20029;-65
2022/04/21 06:33:53;;;;;;;11.75;9.13;;;;;;;11.48;50.88;101219.63;5031328;28;20029;-65
2022/04/21 06:36:18;;;;;;;12.05;9.23;;;;;;;11.62;50.47;101215.25;5014077;28;20140;-65
2022/04/21 06:38:45;;;;;;;12.30;9.13;;;;;;;11.67;50.89;101208.69;5052996;28;20052;-64
2022/04/21 06:41:11;;;;;;;9.80;8.77;;;;;;;11.80;49.80;101206.97;5032805;28;20044;-65
2022/04/21 06:49:08;;;;;;;11.30;8.18;;;;;;;12.24;49.72;101203.34;5027163;28;20056;-65
2022/04/21 06:51:34;;;;;;;9.05;8.15;;;;;;;12.44;48.27;101201.19;5046301;28;20029;-65
2022/04/21 06:53:59;;;;;;;15.35;8.73;;;;;;;12.56;47.77;101196.84;5045701;28;20065;-65
2022/04/21 06:56:25;;;;;;;10.20;9.10;;;;;;;12.60;47.99;101198.38;5029845;28;20051;-65
2022/04/21 06:58:51;;;;;;;9.77;8.75;;;;;;;12.65;48.64;101202.47;5013139;28;20083;-65
2022/04/21 07:01:17;;;;;;;12.25;8.80;;;;;;;12.76;48.24;101196.38;5046645;28;20032;-65
2022/04/21 07:03:45;;;;;;;9.82;8.38;;;;;;;12.87;47.93;101203.69;5027080;28;20037;-65
2022/04/21 07:06:11;;;;;;;15.95;8.63;;;;;;;12.95;47.21;101194.19;5026228;28;20033;-65
2022/04/21 07:08:39;;;;;;;13.02;8.98;;;;;;;13.11;47.43;101201.16;5044055;28;20044;-65
2022/04/21 07:11:05;;;;;;;12.32;8.80;;;;;;;13.23;46.12;101203.00;5050125;28;20096;-65
2022/04/21 07:13:30;;;;;;;9.70;8.43;;;;;;;13.30;46.01;101198.16;5012713;28;20508;-65
2022/04/21 07:15:56;;;;;;;9.65;7.88;;;;;;;13.44;45.66;101199.84;5038916;28;20047;-65
2022/04/21 07:18:21;;;;;;;12.30;8.20;;;;;;;13.63;45.65;101195.78;5031750;28;20034;-65
2022/04/21 07:20:47;;;;;;;13.82;8.70;;;;;;;13.71;44.72;101197.94;5029749;28;20380;-65
2022/04/21 07:23:12;;;;;;;14.35;8.93;;;;;;;13.79;45.97;101195.53;5030717;28;20045;-65
2022/04/21 07:25:39;;;;;;;12.75;8.43;;;;;;;13.99;44.79;101199.47;5031693;28;20316;-65
2022/04/21 07:28:05;;;;;;;11.27;8.55;;;;;;;14.09;45.73;101200.53;5056346;28;20548;-65
2022/04/21 07:30:31;;;;;;;11.57;8.40;;;;;;;14.15;43.68;101201.91;5028856;28;20108;-64
2022/04/21 07:32:57;;;;;;;10.57;8.68;;;;;;;14.19;44.28;101206.06;5045595;28;20031;-65
2022/04/21 07:35:24;;;;;;;10.40;8.00;;;;;;;14.29;44.01;101204.44;5029555;28;20029;-65
2022/04/21 07:37:50;;;;;;;15.73;7.63;;;;;;;14.39;43.06;101209.97;5026681;28;20040;-65
2022/04/21 07:40:16;;;;;;;9.32;7.68;;;;;;;14.53;43.56;101215.19;5050078;28;20091;-65
2022/04/21 07:42:44;;;;;;;11.55;7.95;;;;;;;14.63;43.04;101210.00;5038283;28;20594;-65
2022/04/21 07:45:10;;;;;;;12.30;7.67;;;;;;;14.73;42.19;101210.16;5030394;28;20068;-65
2022/04/21 07:47:36;;;;;;;12.70;8.15;;;;;;;14.75;42.84;101209.09;5033020;28;20052;-65
2022/04/21 07:50:02;;;;;;;12.80;8.05;;;;;;;14.85;42.84;101211.06;5031167;28;20095;-65
2022/04/21 07:55:17;;;;;;;11.77;7.88;;;;;;;15.06;42.32;101211.25;5042663;28;20122;-65
2022/04/21 07:57:44;;;;;;;9.23;6.95;;;;;;;15.19;41.97;101204.00;5029312;28;20029;-65
2022/04/21 08:00:12;;;;;;;15.35;7.40;;;;;;;15.19;42.79;101191.47;5037086;28;20039;-65
2022/04/21 08:02:42;;;;;;;8.45;7.43;;;;;;;15.37;41.93;101205.25;5029410;28;20024;-66
2022/04/21 08:05:11;;;;;;;9.48;7.47;;;;;;;15.45;41.22;101207.34;5038115;28;20025;-65
2022/04/21 08:07:37;;;;;;;;;;;;;;;15.69;41.21;101206.44;5029729;28;20868;-65
2022/04/21 08:10:07;;;;;;;11.57;7.60;;;;;;;15.61;39.96;101213.22;5029151;28;19919;-65
2022/04/21 08:12:39;;;;;;;10.50;7.18;;;;;;;15.71;40.13;101204.50;5029563;28;20045;-66
2022/04/21 08:15:06;;;;;;;16.58;8.35;;;;;;;15.80;41.28;101204.63;5046022;28;20026;-65
2022/04/21 08:17:32;;;;;;;11.27;7.93;;;;;;;15.83;41.61;101199.00;5035051;28;20087;-65
2022/04/21 08:19:58;;;;;;;9.63;7.35;;;;;;;16.07;41.15;101204.22;5031371;28;20033;-66
2022/04/21 08:22:23;;;;;;;12.27;7.72;;;;;;;16.14;40.47;101207.25;5055409;28;20098;-65
2022/04/21 08:33:01;;;;;;;9.32;6.90;;;;;;;16.42;40.58;101213.94;5042590;28;20091;-65
2022/04/21 08:35:27;;;;;;;9.05;6.82;;;;;;;16.43;40.16;101217.47;5032136;28;20037;-65
2022/04/21 08:37:52;;;;;;;10.15;7.05;;;;;;;16.48;40.71;101205.38;5034644;28;20064;-65
2022/04/21 08:40:24;;;;;;;12.18;6.85;;;;;;;16.40;41.05;101207.00;5037388;28;20065;-65
2022/04/21 08:42:52;;;;;;;9.10;6.93;;;;;;;16.55;41.24;101201.19;5032974;28;20029;-66
2022/04/21 08:45:18;;;;;;;9.15;6.82;;;;;;;16.70;40.67;101206.28;5052646;28;20125;-65
2022/04/21 08:47:47;;;;;;;8.55;7.68;;;;;;;16.70;41.36;101195.53;5051058;28;20389;-65
2022/04/21 08:50:14;;;;;;;10.43;7.20;;;;;;;16.81;41.05;101198.22;5032397;28;20133;-65
2022/04/21 08:52:41;;;;;;;11.77;7.03;;;;;;;16.95;41.65;101205.97;5047914;28;20044;-65
2022/04/21 08:55:07;;;;;;;7.10;6.40;;;;;;;16.85;40.44;101193.44;5052726;28;20026;-65
2022/04/21 08:57:35;;;;;;;10.77;6.50;;;;;;;16.93;40.02;101196.34;5032851;28;20067;-65
2022/04/21 09:00:04;;;;;;;9.70;7.10;;;;;;;16.92;40.32;101200.00;5034055;28;20480;-65
2022/04/21 09:02:33;;;;;;;12.98;6.97;;;;;;;17.02;40.74;101195.56;5033085;28;20033;-65
2022/04/21 09:05:00;;;;;;;8.05;7.32;;;;;;;17.04;40.69;101190.91;5035041;28;20053;-65
2022/04/21 09:07:25;;;;;;;7.72;6.10;;;;;;;17.34;39.75;101183.88;5037469;28;20079;-65
2022/04/21 09:10:11;;;;;;;14.43;5.55;;;;;;;17.54;39.26;101190.22;5031501;28;20033;-65
2022/04/21 09:12:42;;;;;;;6.32;5.40;;;;;;;17.41;38.16;101190.41;5034572;28;20033;-65
2022/04/21 09:15:18;;;;;;;11.15;5.70;;;;;;;17.46;38.94;101178.28;5036005;28;20462;-65
2022/04/21 09:17:51;;;;;;;5.63;5.10;;;;;;;17.79;38.48;101188.94;5033602;28;20032;-65
2022/04/21 09:20:22;;;;;;;9.07;5.97;;;;;;;17.69;38.96;101175.44;5034439;28;20376;-66
2022/04/21 09:22:52;;;;;;;6.40;5.70;;;;;;;17.86;37.95;101165.91;5033923;28;20033;-66
2022/04/21 09:25:21;;;;;;;8.27;5.10;;;;;;;18.19;37.71;101172.81;5048062;28;20503;-66
2022/04/21 09:27:52;;;;;;;5.35;4.82;;;;;;;18.28;36.60;101171.13;5031614;28;20033;-66
2022/04/21 09:30:18;;;;;;;6.47;4.78;;;;;;;18.48;36.40;101161.22;5050712;28;20040;-66
2022/04/21 09:32:54;;;;;;;7.28;4.57;;;;;;;18.51;36.02;101167.19;5035617;28;20029;-66
2022/04/21 09:35:21;;;;;;;4.05;3.70;;;;;;;18.55;32.76;101162.34;5047953;28;20039;-66
2022/04/21 09:37:51;;;;;;;6.63;3.90;;;;;;;18.47;33.95;101172.97;5051317;28;20044;-65
2022/04/21 09:40:24;;;;;;;3.65;3.35;;;;;;;18.65;32.65;101168.63;5035719;28;20099;-65
2022/04/21 09:42:55;;;;;;;5.57;4.53;;;;;;;18.71;33.48;101164.50;5035656;28;20044;-66
2022/04/21 09:48:31;;;;;;;6.07;4.70;;;;;;;18.84;34.72;101167.78;5057736;28;20087;-66
2022/04/21 09:51:23;;;;;;;7.63;5.32;;;;;;;18.97;34.78;101168.34;5032857;28;20108;-66
2022/04/21 09:53:58;;;;;;;5.55;4.80;;;;;;;19.16;35.36;101167.47;5032528;28;20452;-66
2022/04/21 09:56:41;;;;;;;8.00;5.10;;;;;;;19.25;34.34;101153.09;5055985;28;20025;-66
2022/04/21 09:59:08;;;;;;;7.65;4.60;;;;;;;19.20;32.73;101159.94;5045787;28;20022;-66
2022/04/21 10:01:37;;;;;;;4.47;4.07;;;;;;;19.17;32.58;101161.06;5033818;28;20018;-66
2022/04/21 10:04:09;;;;;;;7.07;4.53;;;;;;;19.24;32.77;101154.13;5039027;28;20484;-66
2022/04/21 10:06:38;;;;;;;6.50;4.20;;;;;;;19.71;32.89;101153.28;5032698;28;20063;-66
2022/04/21 10:09:07;;;;;;;6.20;3.92;;;;;;;19.74;30.35;101159.22;5050056;28;20124;-66
2022/04/21 10:11:37;;;;;;;4.65;4.07;;;;;;;19.74;30.86;101150.28;5031920;28;20030;-66
2022/04/21 10:14:05;;;;;;;5.13;4.10;;;;;;;19.81;30.11;101155.94;5035627;28;20059;-66
2022/04/21 10:16:33;;;;;;;4.30;3.50;;;;;;;19.94;30.14;101145.63;5034141;28;20108;-66
2022/04/21 10:19:03;;;;;;;4.90;3.80;;;;;;;20.15;28.22;101139.97;5032766;28;20083;-66
2022/04/21 10:21:28;;;;;;;4.03;3.53;;;;;;;19.93;27.86;101144.78;5031179;28;20272;-66
2022/04/21 10:23:54;;;;;;;7.70;3.80;;;;;;;19.94;27.01;101148.31;5032691;28;20036;-66
2022/04/21 10:26:42;;;;;;;3.88;3.47;;;;;;;20.05;28.37;101142.72;5033852;28;20112;-66
2022/04/21 10:29:22;;;;;;;9.73;3.20;;;;;;;20.08;27.24;101139.72;5030056;28;20040;-67
2022/04/21 10:31:59;;;;;;;7.47;3.28;;;;;;;20.22;26.77;101132.94;5032459;28;20029;-66
2022/04/21 10:34:40;;;;;;;8.07;3.20;;;;;;;20.22;28.24;101130.25;5041139;28;20572;-66
2022/04/21 10:37:09;;;;;;;5.88;3.60;;;;;;;20.29;27.70;101133.19;5036711;28;20052;-66
2022/04/21 10:39:34;;;;;;;;;;;;;;;20.64;27.84;101117.00;5047393;28;20025;-66
2022/04/21 10:42:06;;;;;;;4.00;3.05;;;;;;;20.43;28.96;101124.53;5030709;28;20287;-68
2022/04/21 10:44:40;;;;;;;3.10;2.80;;;;;;;20.54;28.05;101121.66;5030360;28;20036;-68
2022/04/21 10:47:28;;;;;;;3.83;3.15;;;;;;;20.62;27.50;101113.63;5030416;28;20026;-68
2022/04/21 10:49:57;;;;;;;3.58;2.83;;;;;;;20.58;27.59;101117.63;5030202;28;20017;-68
2022/04/21 10:57:49;;;;;;;2.92;2.70;;;;;;;20.91;25.66;101098.97;5031147;28;20044;-68
2022/04/21 11:00:23;;;;;;;7.43;2.55;;;;;;;21.00;26.78;101106.16;5029997;28;20040;-68
2022/04/21 11:03:06;;;;;;;3.40;2.08;;;;;;;21.04;23.66;101106.69;5053865;28;20079;-68
2022/04/21 11:05:36;;;;;;;4.30;2.03;;;;;;;21.03;23.38;101110.38;5036956;28;20112;-67
2022/04/21 11:08:10;;;;;;;3.90;2.30;;;;;;;20.96;23.32;101104.75;5031817;28;20493;-68
2022/04/21 11:10:39;;;;;;;3.70;2.25;;;;;;;21.22;23.37;101109.31;5031770;28;20029;-68
2022/04/21 11:13:04;;;;;;;4.57;2.00;;;;;;;21.19;23.38;101098.81;5031454;28;20049;-68
2022/04/21 11:15:33;;;;;;;2.70;2.08;;;;;;;21.44;22.29;101097.13;5054933;28;20472;-68
2022/04/21 11:18:20;;;;;;;3.20;1.83;;;;;;;21.41;23.80;101081.19;5032682;28;20034;-67
2022/04/21 11:20:48;;;;;;;2.75;2.15;;;;;;;21.67;23.15;101084.69;5029733;28;20041;-68
2022/04/21 11:23:29;;;;;;;8.20;2.47;;;;;;;21.66;22.67;101080.31;5031056;28;20381;-67
2022/04/21 11:26:03;;;;;;;3.65;2.00;;;;;;;21.84;23.00;101080.19;5049280;28;20032;-68
2022/04/21 11:28:30;;;;;;;7.60;1.88;;;;;;;22.15;23.50;101071.47;5069289;28;20030;-68
2022/04/21 11:31:03;;;;;;;3.53;2.38;;;;;;;22.53;22.21;101061.88;5033257;28;20029;-68
2022/04/21 11:33:32;;;;;;;4.05;1.90;;;;;;;23.14;22.20;101065.03;5030951;28;20033;-68
2022/04/21 11:36:08;;;;;;;2.47;2.22;;;;;;;23.36;22.02;101060.75;5047044;28;20022;-68
2022/04/21 11:38:35;;;;;;;11.88;2.35;;;;;;;23.60;21.86;101048.09;5029943;28;20464;-68
2022/04/21 11:41:05;;;;;;;5.10;2.10;;;;;;;23.88;21.64;101057.44;5030588;28;20500;-68
2022/04/21 11:43:30;;;;;;;5.03;2.22;;;;;;;24.06;20.90;101045.44;5044856;28;20029;-68
2022/04/21 11:46:00;;;;;;;6.55;3.05;;;;;;;24.47;20.47;101046.88;5032106;28;20025;-68
2022/04/21 11:48:37;;;;;;;6.53;2.35;;;;;;;25.00;21.17;101051.47;5029187;28;20033;-68
2022/04/21 11:51:04;;;;;;;6.47;2.30;;;;;;;25.17;20.81;101046.72;5032727;28;20022;-68
2022/04/21 11:53:36;;;;;;;5.00;2.22;;;;;;;25.52;19.57;101056.84;5031002;28;20029;-69
2022/04/21 11:56:03;;;;;;;10.32;2.42;;;;;;;25.79;18.57;101058.00;5032205;28;20500;-68
2022/04/21 11:58:30;;;;;;;8.40;2.20;;;;;;;25.82;18.50;101056.81;5034165;28;20425;-68
2022/04/21 12:06:37;;;;;;;6.10;2.38;;;;;;;27.68;17.10;101055.63;5035986;28;20048;-69
2022/04/21 12:09:03;;;;;;;2.90;2.30;;;;;;;28.42;15.98;101045.75;5017485;28;20412;-69
2022/04/21 12:11:29;;;;;;;3.90;2.28;;;;;;;28.64;15.73;101039.00;5033065;28;20081;-69
2022/04/21 12:13:55;;;;;;;8.02;2.33;;;;;;;28.92;16.70;101041.50;5037295;28;20072;-69
2022/04/21 12:16:40;;;;;;;5.10;2.33;;;;;;;29.61;16.89;101025.50;5050221;28;20048;-69
2022/04/21 12:19:34;;;;;;;6.97;2.05;;;;;;;29.75;17.08;101029.88;5034088;28;20030;-68
2022/04/21 12:22:20;;;;;;;6.53;1.95;;;;;;;29.77;15.82;101019.56;5032851;28;20072;-69
2022/04/21 12:24:48;;;;;;;2.50;1.95;;;;;;;29.62;14.54;101025.31;5037109;28;20018;-69